C2 — ZCYD3 — position and weather

sailwx.info

Track history (hours):
 
Tides and Currents Weather Stations Pressure Air Temp Water Temp Dewpoint Dewpoint Depression Visibility Wind Speed Wind Dir Waves Ship Positions

C2

Last reported at 2016-Nov-27 18:25 UTC. Time now 2016-Dec-06 10:16 UTC.
Position N 18°02' W 063°06'.
Warning: this ship's position is 8 days out of date.

Length 79 m; draft 3.4 m.

Type: Pleasure craft. MMSI: 319268000.

Date/timePositionNaut miles runAvg speedWind from/ knotsBaromVisibWave heightAir tempDewpointWater temp
2016-Nov-27 18:25N 18°02' W 063°06'0 0.0
2016-Nov-27 17:31N 18°02' W 063°06'0 0.0
2016-Nov-27 16:31N 18°02' W 063°06'2 1.9
2016-Nov-27 15:31N 18°03' W 063°08'1 0.6
2016-Nov-27 14:13N 18°03' W 063°09'0 0.0
2016-Nov-27 13:28N 18°03' W 063°09'9 0.2
2016-Nov-25 17:26N 17°58' W 063°00'6 6.1
2016-Nov-25 16:22N 18°02' W 063°06'0 0.0
2016-Nov-25 15:24N 18°02' W 063°06'2 2.2
2016-Nov-25 14:32N 18°00' W 063°06'2 0.0
2016-Nov-23 21:32N 18°00' W 063°04'3 3.0
2016-Nov-23 20:32N 18°02' W 063°06'0 0.0
2016-Nov-23 19:32N 18°02' W 063°06'0 0.0
2016-Nov-23 18:32N 18°02' W 063°06'0 0.0
2016-Nov-23 17:32N 18°02' W 063°06'0 0.0
2016-Nov-23 16:23N 18°02' W 063°06'0 0.0
2016-Nov-23 15:23N 18°02' W 063°06'0 0.0
2016-Nov-23 14:27N 18°02' W 063°06'0 0.0
2016-Nov-23 13:26N 18°02' W 063°06'0 0.0
2016-Nov-23 12:33N 18°02' W 063°06'  
Track history (hours):
 
Tides and Currents Weather Stations Pressure Air Temp Water Temp Dewpoint Dewpoint Depression Visibility Wind Speed Wind Dir Waves Ship Positions

C2

Last reported at 2016-Nov-27 18:25 UTC. Time now 2016-Dec-06 10:16 UTC.
Position N 18°02' W 063°06'.
Warning: this ship's position is 8 days out of date.

Length 79 m; draft 3.4 m.

Type: Pleasure craft. MMSI: 319268000.

Date/timePositionNaut miles runAvg speedWind from/ knotsBaromVisibWave heightAir tempDewpointWater temp
2016-Nov-27 18:25N 18°02' W 063°06'0 0.0
2016-Nov-27 17:31N 18°02' W 063°06'0 0.0
2016-Nov-27 16:31N 18°02' W 063°06'2 1.9
2016-Nov-27 15:31N 18°03' W 063°08'1 0.6
2016-Nov-27 14:13N 18°03' W 063°09'0 0.0
2016-Nov-27 13:28N 18°03' W 063°09'9 0.2
2016-Nov-25 17:26N 17°58' W 063°00'6 6.1
2016-Nov-25 16:22N 18°02' W 063°06'0 0.0
2016-Nov-25 15:24N 18°02' W 063°06'2 2.2
2016-Nov-25 14:32N 18°00' W 063°06'2 0.0
2016-Nov-23 21:32N 18°00' W 063°04'3 3.0
2016-Nov-23 20:32N 18°02' W 063°06'0 0.0
2016-Nov-23 19:32N 18°02' W 063°06'0 0.0
2016-Nov-23 18:32N 18°02' W 063°06'0 0.0
2016-Nov-23 17:32N 18°02' W 063°06'0 0.0
2016-Nov-23 16:23N 18°02' W 063°06'0 0.0
2016-Nov-23 15:23N 18°02' W 063°06'0 0.0
2016-Nov-23 14:27N 18°02' W 063°06'0 0.0
2016-Nov-23 13:26N 18°02' W 063°06'0 0.0
2016-Nov-23 12:33N 18°02' W 063°06'  

Dump ship's entire track history